Time;durP1;ratioP1;P1;durP2;ratioP2;P2;SDS_P1;SDS_P2;PMS_P1;PMS_P2;Temp;Humidity;BMP_temperature;BMP_pressure;BME280_temperature;BME280_humidity;BME280_pressure;Samples;Min_cycle;Max_cycle;Signal;HPM_P1;HPM_P2
2021/04/16 00:01:50;;;;;;;4.60;4.30;;;;;;;;;;5009728;28;20642;-47
2021/04/16 00:04:15;;;;;;;4.90;4.55;;;;;;;;;;5010640;28;20174;-46
2021/04/16 00:06:40;;;;;;;4.88;4.47;;;;;;;;;;5010411;28;20660;-47
2021/04/16 00:09:05;;;;;;;5.03;4.63;;;;;;;;;;5008255;28;20180;-47
2021/04/16 00:11:30;;;;;;;4.47;4.20;;;;;;;;;;5008757;28;20764;-47
2021/04/16 00:13:56;;;;;;;4.55;4.22;;;;;;;;;;5009329;28;20179;-47
2021/04/16 00:16:24;;;;;;;5.00;4.63;;;;;;;;;;5007792;28;20290;-47
2021/04/16 00:18:49;;;;;;;4.50;4.20;;;;;;;;;;5010215;28;20176;-47
2021/04/16 00:21:15;;;;;;;4.67;4.37;;;;;;;;;;5011149;28;21142;-47
2021/04/16 00:23:40;;;;;;;5.00;4.70;;;;;;;;;;5009714;28;20626;-47
2021/04/16 00:26:06;;;;;;;4.67;4.37;;;;;;;;;;5009771;28;20683;-47
2021/04/16 00:28:31;;;;;;;5.83;5.33;;;;;;;;;;5010476;28;20183;-47
2021/04/16 00:31:02;;;;;;;6.03;5.53;;;;;;;;;;5009872;28;20553;-47
2021/04/16 00:33:28;;;;;;;4.87;4.57;;;;;;;;;;5008788;28;20551;-47
2021/04/16 00:35:53;;;;;;;5.27;4.90;;;;;;;;;;5009347;28;20614;-47
2021/04/16 00:38:19;;;;;;;5.63;5.23;;;;;;;;;;5010278;28;20676;-47
2021/04/16 00:40:48;;;;;;;6.03;5.60;;;;;;;;;;5010344;28;20223;-47
2021/04/16 00:43:16;;;;;;;4.70;4.40;;;;;;;;;;5009902;28;20209;-47
2021/04/16 00:45:41;;;;;;;5.43;5.03;;;;;;;;;;5011455;28;20614;-47
2021/04/16 00:48:11;;;;;;;6.03;5.63;;;;;;;;;;5007767;28;21218;-47
2021/04/16 00:50:56;;;;;;;5.00;4.70;;;;;;;;;;5009362;28;20226;-48
2021/04/16 00:53:21;;;;;;;5.70;5.20;;;;;;;;;;5008730;28;20681;-48
2021/04/16 00:55:48;;;;;;;5.37;4.97;;;;;;;;;;5009153;28;20610;-47
2021/04/16 00:58:13;;;;;;;5.37;4.97;;;;;;;;;;5008950;28;20180;-47
2021/04/16 01:00:41;;;;;;;4.60;4.27;;;;;;;;;;5009090;28;20601;-47
2021/04/16 01:03:06;;;;;;;4.83;4.53;;;;;;;;;;5008770;28;20180;-47
2021/04/16 01:05:31;;;;;;;4.47;4.10;;;;;;;;;;5009402;28;20658;-47
2021/04/16 01:07:56;;;;;;;4.60;4.30;;;;;;;;;;5008731;28;20204;-47
2021/04/16 01:10:22;;;;;;;4.47;4.17;;;;;;;;;;5008161;28;20615;-47
2021/04/16 01:12:47;;;;;;;4.50;4.20;;;;;;;;;;5009032;28;20202;-46
2021/04/16 01:15:26;;;;;;;4.47;4.17;;;;;;;;;;5008395;28;20242;-46
2021/04/16 01:17:52;;;;;;;4.40;4.10;;;;;;;;;;5009095;28;20225;-47
2021/04/16 01:20:19;;;;;;;4.47;4.17;;;;;;;;;;5009352;28;20641;-46
2021/04/16 01:23:05;;;;;;;5.00;4.70;;;;;;;;;;5007359;28;20239;-46
2021/04/16 01:25:30;;;;;;;4.37;4.07;;;;;;;;;;4997486;28;21156;-47
2021/04/16 01:27:55;;;;;;;5.37;4.90;;;;;;;;;;5007087;28;20598;-46
2021/04/16 01:30:25;;;;;;;5.40;5.00;;;;;;;;;;5007409;28;20181;-46
2021/04/16 01:32:52;;;;;;;5.57;5.17;;;;;;;;;;5009020;28;20211;-47
2021/04/16 01:35:19;;;;;;;5.63;5.17;;;;;;;;;;5008929;28;20594;-47
2021/04/16 01:37:44;;;;;;;6.90;6.40;;;;;;;;;;5008749;28;20609;-47
2021/04/16 01:40:10;;;;;;;6.40;5.90;;;;;;;;;;5008572;28;20875;-46
2021/04/16 01:42:35;;;;;;;5.23;4.93;;;;;;;;;;5008497;28;20189;-47
2021/04/16 01:45:00;;;;;;;6.00;5.50;;;;;;;;;;5008875;28;21222;-46
2021/04/16 01:47:26;;;;;;;6.00;5.60;;;;;;;;;;5007131;28;20175;-46
2021/04/16 01:49:52;;;;;;;6.30;5.70;;;;;;;;;;5007752;28;20178;-46
2021/04/16 01:52:21;;;;;;;6.40;5.93;;;;;;;;;;5007922;28;20204;-46
2021/04/16 01:54:51;;;;;;;6.50;6.00;;;;;;;;;;5008967;28;20632;-47
2021/04/16 01:57:18;;;;;;;6.90;6.40;;;;;;;;;;5007564;28;21265;-46
2021/04/16 01:59:44;;;;;;;7.03;6.40;;;;;;;;;;5005897;28;20986;-46
2021/04/16 02:02:11;;;;;;;7.50;6.90;;;;;;;;;;5007784;28;20749;-47
2021/04/16 02:04:36;;;;;;;8.20;7.40;;;;;;;;;;5008094;28;20595;-50
2021/04/16 02:07:02;;;;;;;7.80;7.00;;;;;;;;;;5008589;28;20600;-47
2021/04/16 02:09:28;;;;;;;8.03;7.43;;;;;;;;;;5008105;28;20220;-47
2021/04/16 02:11:53;;;;;;;8.53;7.73;;;;;;;;;;5007114;28;20193;-46
2021/04/16 02:14:20;;;;;;;8.30;7.50;;;;;;;;;;5008038;28;20639;-46
2021/04/16 02:16:47;;;;;;;8.30;7.60;;;;;;;;;;5007331;28;20310;-46
2021/04/16 02:19:12;;;;;;;8.13;7.40;;;;;;;;;;5007673;28;21190;-46
2021/04/16 02:21:38;;;;;;;9.17;8.27;;;;;;;;;;5008116;28;20596;-46
2021/04/16 02:24:04;;;;;;;7.70;7.07;;;;;;;;;;5007930;28;20184;-46
2021/04/16 02:26:29;;;;;;;9.03;8.23;;;;;;;;;;5007975;28;20534;-46
2021/04/16 02:28:54;;;;;;;9.70;8.73;;;;;;;;;;5007589;28;21110;-46
2021/04/16 02:31:19;;;;;;;8.70;7.90;;;;;;;;;;5007098;28;20562;-46
2021/04/16 02:33:44;;;;;;;7.57;6.97;;;;;;;;;;5007394;28;20180;-47
2021/04/16 02:36:10;;;;;;;8.90;8.10;;;;;;;;;;5011128;28;20830;-46
2021/04/16 02:38:35;;;;;;;9.47;8.53;;;;;;;;;;5005671;28;20184;-46
2021/04/16 02:41:00;;;;;;;9.97;9.07;;;;;;;;;;5007205;28;20230;-46
2021/04/16 02:43:26;;;;;;;8.65;7.97;;;;;;;;;;5006572;28;20184;-47
2021/04/16 02:45:51;;;;;;;8.13;7.40;;;;;;;;;;5008001;28;20662;-47
2021/04/16 02:48:16;;;;;;;8.73;7.95;;;;;;;;;;5007489;28;20276;-47
2021/04/16 02:50:42;;;;;;;9.07;8.17;;;;;;;;;;5007504;28;20634;-47
2021/04/16 02:53:07;;;;;;;8.80;8.00;;;;;;;;;;5006867;28;20646;-47
2021/04/16 02:55:32;;;;;;;9.30;8.40;;;;;;;;;;5008363;28;20598;-46
2021/04/16 02:57:57;;;;;;;8.77;7.90;;;;;;;;;;5007281;28;20644;-47
2021/04/16 03:00:24;;;;;;;7.55;6.93;;;;;;;;;;5007084;28;20208;-49
2021/04/16 03:02:50;;;;;;;8.63;7.73;;;;;;;;;;5007537;28;20188;-46
2021/04/16 03:05:16;;;;;;;8.60;7.80;;;;;;;;;;5007560;28;20615;-46
2021/04/16 03:07:41;;;;;;;9.90;9.07;;;;;;;;;;5007500;28;20169;-46
2021/04/16 03:10:07;;;;;;;9.67;8.83;;;;;;;;;;5005944;28;20195;-46
2021/04/16 03:12:32;;;;;;;8.40;7.70;;;;;;;;;;5005814;28;20204;-46
2021/04/16 03:14:57;;;;;;;8.23;7.53;;;;;;;;;;5007435;28;20645;-46
2021/04/16 03:17:23;;;;;;;7.80;7.10;;;;;;;;;;5007233;28;20242;-46
2021/04/16 03:19:49;;;;;;;9.47;8.67;;;;;;;;;;5007422;28;20213;-51
2021/04/16 03:22:14;;;;;;;8.53;7.60;;;;;;;;;;5007202;28;20637;-46
2021/04/16 03:24:39;;;;;;;7.90;7.20;;;;;;;;;;5007451;28;20174;-47
2021/04/16 03:27:04;;;;;;;9.83;8.90;;;;;;;;;;5007929;28;20179;-46
2021/04/16 03:29:29;;;;;;;9.13;8.33;;;;;;;;;;5007528;28;20786;-46
2021/04/16 03:31:55;;;;;;;8.52;7.82;;;;;;;;;;5007505;28;20258;-47
2021/04/16 03:34:20;;;;;;;10.03;9.13;;;;;;;;;;5007474;28;20188;-46
2021/04/16 03:36:45;;;;;;;9.20;8.30;;;;;;;;;;5006010;28;20176;-47
2021/04/16 03:39:11;;;;;;;8.35;7.65;;;;;;;;;;5007577;28;20168;-47
2021/04/16 03:41:36;;;;;;;8.13;7.50;;;;;;;;;;5005246;28;20199;-47
2021/04/16 03:44:02;;;;;;;8.77;7.87;;;;;;;;;;5006423;28;20611;-47
2021/04/16 03:46:27;;;;;;;9.33;7.30;;;;;;;;;;5005548;28;20232;-48
2021/04/16 03:48:52;;;;;;;8.30;7.50;;;;;;;;;;5002607;28;20311;-47
2021/04/16 03:51:17;;;;;;;7.95;7.15;;;;;;;;;;5006045;28;20640;-46
2021/04/16 03:53:42;;;;;;;11.20;8.47;;;;;;;;;;5003425;28;20169;-46
2021/04/16 03:56:08;;;;;;;7.57;6.97;;;;;;;;;;5003699;28;20184;-47
2021/04/16 03:58:34;;;;;;;8.80;8.00;;;;;;;;;;5003275;28;20180;-47
2021/04/16 04:01:00;;;;;;;8.60;7.90;;;;;;;;;;5008566;28;20624;-47
2021/04/16 04:03:25;;;;;;;8.68;7.88;;;;;;;;;;5004360;28;20615;-48
2021/04/16 04:05:50;;;;;;;9.93;9.02;;;;;;;;;;5004464;28;20812;-47
2021/04/16 04:08:15;;;;;;;10.13;9.13;;;;;;;;;;5004084;28;20238;-47
2021/04/16 04:10:40;;;;;;;10.10;9.10;;;;;;;;;;5006827;28;20286;-47
2021/04/16 04:13:07;;;;;;;10.50;9.50;;;;;;;;;;4998684;28;20220;-48
2021/04/16 04:15:32;;;;;;;10.63;9.53;;;;;;;;;;5004643;28;20215;-47
2021/04/16 04:17:58;;;;;;;11.03;9.93;;;;;;;;;;5007148;28;20683;-51
2021/04/16 04:20:24;;;;;;;10.23;9.23;;;;;;;;;;5006699;28;20760;-47
2021/04/16 04:22:50;;;;;;;10.53;9.63;;;;;;;;;;5001387;28;20177;-47
2021/04/16 04:25:18;;;;;;;10.43;9.50;;;;;;;;;;5007819;28;20613;-47
2021/04/16 04:27:44;;;;;;;10.03;9.03;;;;;;;;;;5007972;28;20308;-47
2021/04/16 04:30:09;;;;;;;11.77;10.60;;;;;;;;;;5007176;28;20690;-47
2021/04/16 04:32:34;;;;;;;10.33;9.33;;;;;;;;;;5001137;28;20215;-47
2021/04/16 04:34:59;;;;;;;9.57;8.68;;;;;;;;;;5003013;28;20188;-47
2021/04/16 04:37:25;;;;;;;12.10;10.80;;;;;;;;;;5005367;28;22026;-47
2021/04/16 04:39:50;;;;;;;11.03;9.93;;;;;;;;;;5006698;28;20275;-47
2021/04/16 04:42:15;;;;;;;13.27;10.20;;;;;;;;;;5006394;28;20263;-47
2021/04/16 04:44:40;;;;;;;10.00;9.20;;;;;;;;;;5002337;28;20269;-47
2021/04/16 04:47:07;;;;;;;10.75;9.73;;;;;;;;;;5006782;28;20181;-47
2021/04/16 04:49:33;;;;;;;10.23;9.30;;;;;;;;;;5006402;28;20185;-47
2021/04/16 04:52:14;;;;;;;11.90;10.83;;;;;;;;;;4995377;28;20639;-46
2021/04/16 04:54:42;;;;;;;9.80;8.77;;;;;;;;;;5005819;28;21238;-47
2021/04/16 04:57:07;;;;;;;10.27;9.37;;;;;;;;;;5005908;28;20596;-46
2021/04/16 04:59:32;;;;;;;10.63;9.63;;;;;;;;;;5006399;28;20654;-47
2021/04/16 05:01:57;;;;;;;15.73;10.87;;;;;;;;;;5004448;28;20187;-47
2021/04/16 05:04:23;;;;;;;10.63;9.70;;;;;;;;;;5006472;28;20194;-50
2021/04/16 05:06:48;;;;;;;11.63;10.53;;;;;;;;;;5005745;28;20201;-46
2021/04/16 05:09:13;;;;;;;10.90;9.90;;;;;;;;;;4998024;28;20173;-47
2021/04/16 05:11:38;;;;;;;13.20;11.05;;;;;;;;;;4988623;28;20258;-47
2021/04/16 05:14:03;;;;;;;12.23;11.03;;;;;;;;;;4997088;28;20230;-46
2021/04/16 05:16:28;;;;;;;11.50;10.40;;;;;;;;;;5001815;28;20243;-47
2021/04/16 05:18:54;;;;;;;13.38;11.70;;;;;;;;;;4992383;28;20610;-47
2021/04/16 05:21:19;;;;;;;11.80;10.70;;;;;;;;;;4994319;28;20520;-47
2021/04/16 05:23:44;;;;;;;12.43;10.57;;;;;;;;;;4994402;28;20188;-46
2021/04/16 05:26:10;;;;;;;11.20;10.10;;;;;;;;;;5003495;28;20176;-47
2021/04/16 05:28:35;;;;;;;11.40;10.20;;;;;;;;;;4989269;28;20193;-47
2021/04/16 05:31:00;;;;;;;10.20;9.23;;;;;;;;;;4991314;28;20173;-46
2021/04/16 05:33:25;;;;;;;10.82;9.73;;;;;;;;;;5008682;28;20289;-46
2021/04/16 05:35:50;;;;;;;13.57;12.10;;;;;;;;;;5009321;28;20169;-46
2021/04/16 05:38:15;;;;;;;11.38;10.27;;;;;;;;;;5009081;28;20186;-46
2021/04/16 05:40:41;;;;;;;11.00;9.90;;;;;;;;;;5009228;28;20172;-46
2021/04/16 05:43:06;;;;;;;12.67;11.30;;;;;;;;;;5008394;28;20173;-46
2021/04/16 05:45:31;;;;;;;14.33;12.13;;;;;;;;;;5009009;28;20176;-46
2021/04/16 05:47:56;;;;;;;13.00;11.68;;;;;;;;;;5008857;28;20251;-47
2021/04/16 05:50:21;;;;;;;14.30;12.80;;;;;;;;;;5008591;28;20299;-47
2021/04/16 05:52:46;;;;;;;12.73;11.43;;;;;;;;;;5008667;28;20204;-46
2021/04/16 05:55:12;;;;;;;11.75;10.55;;;;;;;;;;5009020;28;20181;-46
2021/04/16 05:57:37;;;;;;;12.00;10.90;;;;;;;;;;5003381;28;20183;-47
2021/04/16 06:00:03;;;;;;;13.50;12.10;;;;;;;;;;4999551;28;20177;-46
2021/04/16 06:02:33;;;;;;;14.97;12.33;;;;;;;;;;4998070;28;20187;-47
2021/04/16 06:04:59;;;;;;;13.40;12.00;;;;;;;;;;5008998;28;20605;-46
2021/04/16 06:07:24;;;;;;;11.77;10.67;;;;;;;;;;5006112;28;21161;-46
2021/04/16 06:09:50;;;;;;;11.33;10.33;;;;;;;;;;5008255;28;20609;-47
2021/04/16 06:12:16;;;;;;;10.37;9.37;;;;;;;;;;5007911;28;20642;-46
2021/04/16 06:14:42;;;;;;;11.87;10.77;;;;;;;;;;5008731;28;20634;-46
2021/04/16 06:17:08;;;;;;;13.30;11.90;;;;;;;;;;5006654;28;20227;-47
2021/04/16 06:19:33;;;;;;;10.50;9.57;;;;;;;;;;5008067;28;20235;-46
2021/04/16 06:21:58;;;;;;;10.13;9.23;;;;;;;;;;5009104;28;20246;-46
2021/04/16 06:24:23;;;;;;;10.87;9.97;;;;;;;;;;5007946;28;20658;-46
2021/04/16 06:26:48;;;;;;;9.38;8.50;;;;;;;;;;5008820;28;20219;-46
2021/04/16 06:29:13;;;;;;;10.27;9.20;;;;;;;;;;5007499;28;20580;-47
2021/04/16 06:31:39;;;;;;;8.80;8.10;;;;;;;;;;5008020;28;20191;-47
2021/04/16 06:34:04;;;;;;;8.73;8.03;;;;;;;;;;5007260;28;20231;-47
2021/04/16 06:36:29;;;;;;;8.15;7.47;;;;;;;;;;5008664;28;20173;-46
2021/04/16 06:38:54;;;;;;;7.20;6.60;;;;;;;;;;5007786;28;20581;-47
2021/04/16 06:41:30;;;;;;;8.70;7.97;;;;;;;;;;5006852;28;20632;-46
2021/04/16 06:44:19;;;;;;;8.10;7.50;;;;;;;;;;5006342;28;20211;-46
2021/04/16 06:46:45;;;;;;;7.57;6.97;;;;;;;;;;4998797;28;20649;-46
2021/04/16 06:49:14;;;;;;;8.60;7.23;;;;;;;;;;5008059;28;20603;-46
2021/04/16 06:51:42;;;;;;;7.40;6.70;;;;;;;;;;5004658;28;20598;-47
2021/04/16 06:54:11;;;;;;;8.57;7.70;;;;;;;;;;5000713;28;20599;-46
2021/04/16 06:56:38;;;;;;;7.83;7.00;;;;;;;;;;4986047;28;20585;-46
2021/04/16 06:59:27;;;;;;;7.27;6.63;;;;;;;;;;4995256;28;20664;-47
2021/04/16 07:01:55;;;;;;;6.50;6.00;;;;;;;;;;4996824;28;20612;-46
2021/04/16 07:04:39;;;;;;;7.33;6.77;;;;;;;;;;4996570;28;20731;-48
2021/04/16 07:07:10;;;;;;;6.93;6.33;;;;;;;;;;5003708;28;20978;-46
2021/04/16 07:09:38;;;;;;;7.23;6.70;;;;;;;;;;4992954;28;20609;-46
2021/04/16 07:12:03;;;;;;;6.20;5.73;;;;;;;;;;5001515;28;20653;-46
2021/04/16 07:14:32;;;;;;;7.57;6.97;;;;;;;;;;5000207;28;20626;-46
2021/04/16 07:16:57;;;;;;;8.07;7.37;;;;;;;;;;4991391;28;20236;-46
2021/04/16 07:19:25;;;;;;;6.95;6.45;;;;;;;;;;5007702;28;20602;-46
2021/04/16 07:22:00;;;;;;;7.40;6.87;;;;;;;;;;5007647;28;20209;-46
2021/04/16 07:24:26;;;;;;;7.90;7.20;;;;;;;;;;5007643;28;20685;-47
2021/04/16 07:26:53;;;;;;;6.80;6.20;;;;;;;;;;5008078;28;20673;-47
2021/04/16 07:29:37;;;;;;;7.63;6.83;;;;;;;;;;5007622;28;20258;-47
2021/04/16 07:32:03;;;;;;;8.20;7.40;;;;;;;;;;5007481;28;20651;-46
2021/04/16 07:34:28;;;;;;;7.70;7.10;;;;;;;;;;5007589;28;20572;-46
2021/04/16 07:36:53;;;;;;;6.72;6.22;;;;;;;;;;5007739;28;20170;-47
2021/04/16 07:39:24;;;;;;;7.87;7.17;;;;;;;;;;5008079;28;20503;-47
2021/04/16 07:41:54;;;;;;;7.43;6.83;;;;;;;;;;5007137;28;20829;-47
2021/04/16 07:44:28;;;;;;;7.67;7.10;;;;;;;;;;5008004;28;20591;-46
2021/04/16 07:46:57;;;;;;;7.67;7.17;;;;;;;;;;5011153;28;20604;-46
2021/04/16 07:49:23;;;;;;;7.63;7.03;;;;;;;;;;5011047;28;20585;-47
2021/04/16 07:51:50;;;;;;;7.43;6.83;;;;;;;;;;5011201;28;20629;-47
2021/04/16 07:54:15;;;;;;;7.37;6.73;;;;;;;;;;5010646;28;21137;-46
2021/04/16 07:56:41;;;;;;;8.00;7.30;;;;;;;;;;5010466;28;20599;-46
2021/04/16 07:59:10;;;;;;;7.60;6.90;;;;;;;;;;5010857;28;20586;-47
2021/04/16 08:01:38;;;;;;;8.13;7.40;;;;;;;;;;5010545;28;20572;-46
2021/04/16 08:04:11;;;;;;;7.73;7.13;;;;;;;;;;5011199;28;20621;-47
2021/04/16 08:06:38;;;;;;;7.63;6.87;;;;;;;;;;5010699;28;21132;-47
2021/04/16 08:09:12;;;;;;;7.93;7.17;;;;;;;;;;5011008;28;20682;-47
2021/04/16 08:11:38;;;;;;;7.83;7.13;;;;;;;;;;5010317;28;20679;-47
2021/04/16 08:14:11;;;;;;;7.83;7.13;;;;;;;;;;5010596;28;20703;-47
2021/04/16 08:16:41;;;;;;;8.30;7.60;;;;;;;;;;5010055;28;20233;-47
2021/04/16 08:19:18;;;;;;;8.10;7.47;;;;;;;;;;5010750;28;20592;-47
2021/04/16 08:21:45;;;;;;;8.00;7.20;;;;;;;;;;5010242;28;20695;-47
2021/04/16 08:24:11;;;;;;;8.73;7.93;;;;;;;;;;5010038;28;20671;-47
2021/04/16 08:26:38;;;;;;;7.70;7.10;;;;;;;;;;5010705;28;20675;-48
2021/04/16 08:29:06;;;;;;;8.43;7.73;;;;;;;;;;5010924;28;20182;-48
2021/04/16 08:31:39;;;;;;;9.00;8.10;;;;;;;;;;5010269;28;20563;-47
2021/04/16 08:34:10;;;;;;;9.70;7.70;;;;;;;;;;5010663;28;20575;-47
2021/04/16 08:36:36;;;;;;;7.30;6.80;;;;;;;;;;5010261;28;20568;-47
2021/04/16 08:39:08;;;;;;;8.80;7.90;;;;;;;;;;5010838;28;20629;-47
2021/04/16 08:41:38;;;;;;;6.67;6.03;;;;;;;;;;5010497;28;21134;-47
2021/04/16 08:44:06;;;;;;;7.43;6.63;;;;;;;;;;5009469;28;20620;-47
2021/04/16 08:46:35;;;;;;;8.43;7.47;;;;;;;;;;5009964;28;20600;-47
2021/04/16 08:49:05;;;;;;;7.70;7.00;;;;;;;;;;5010603;28;20586;-47
2021/04/16 08:51:32;;;;;;;9.33;8.43;;;;;;;;;;5010250;28;20942;-48
2021/04/16 08:53:59;;;;;;;8.10;7.40;;;;;;;;;;5010006;28;20604;-47
2021/04/16 08:56:25;;;;;;;8.03;7.30;;;;;;;;;;5009874;28;20592;-47
2021/04/16 08:58:51;;;;;;;8.23;7.10;;;;;;;;;;5009886;28;20600;-47
2021/04/16 09:01:18;;;;;;;9.30;8.40;;;;;;;;;;5010145;28;20589;-48
2021/04/16 09:03:47;;;;;;;7.70;7.00;;;;;;;;;;5009733;28;20239;-47
2021/04/16 09:06:31;;;;;;;8.40;7.27;;;;;;;;;;5010095;28;21259;-48
2021/04/16 09:08:57;;;;;;;7.83;7.13;;;;;;;;;;5010194;28;20631;-47
2021/04/16 09:11:40;;;;;;;8.30;7.60;;;;;;;;;;5009592;28;20576;-47
2021/04/16 09:14:06;;;;;;;9.40;8.43;;;;;;;;;;4990244;28;20601;-47
2021/04/16 09:16:49;;;;;;;9.40;8.50;;;;;;;;;;4991293;28;20697;-47
2021/04/16 09:19:27;;;;;;;10.27;9.27;;;;;;;;;;5010094;28;20165;-48
2021/04/16 09:22:01;;;;;;;12.33;11.13;;;;;;;;;;5009410;28;20638;-48
2021/04/16 09:24:41;;;;;;;11.93;10.37;;;;;;;;;;4989819;28;20595;-47
2021/04/16 09:27:14;;;;;;;10.47;9.50;;;;;;;;;;4990103;28;20683;-47
2021/04/16 09:29:40;;;;;;;8.67;7.87;;;;;;;;;;4990064;28;20565;-47
2021/04/16 09:32:25;;;;;;;8.10;7.40;;;;;;;;;;4995279;28;21228;-47
2021/04/16 09:34:52;;;;;;;6.77;6.20;;;;;;;;;;5009152;28;21065;-47
2021/04/16 09:37:31;;;;;;;8.00;7.30;;;;;;;;;;5009639;28;20572;-48
2021/04/16 09:39:59;;;;;;;8.23;7.30;;;;;;;;;;5009401;28;21316;-48
2021/04/16 09:42:27;;;;;;;8.70;7.90;;;;;;;;;;5007394;28;20599;-47
2021/04/16 09:44:56;;;;;;;9.33;7.67;;;;;;;;;;5009217;28;20588;-46
2021/04/16 09:47:40;;;;;;;8.60;7.67;;;;;;;;;;5009111;28;20627;-47
2021/04/16 09:50:05;;;;;;;9.47;8.30;;;;;;;;;;5009241;28;20596;-47
2021/04/16 09:52:33;;;;;;;7.87;7.17;;;;;;;;;;5008782;28;21049;-47
2021/04/16 09:54:59;;;;;;;10.40;8.80;;;;;;;;;;5008851;28;20179;-46
2021/04/16 09:57:26;;;;;;;10.38;9.27;;;;;;;;;;5009011;28;20592;-47
2021/04/16 09:59:54;;;;;;;9.93;8.03;;;;;;;;;;5009007;28;20892;-47
2021/04/16 10:02:22;;;;;;;9.27;8.37;;;;;;;;;;5008982;28;20599;-47
2021/04/16 10:05:06;;;;;;;11.47;9.10;;;;;;;;;;5008854;28;20603;-46
2021/04/16 10:07:50;;;;;;;9.87;8.87;;;;;;;;;;5008339;28;20582;-46
2021/04/16 10:10:19;;;;;;;10.43;9.43;;;;;;;;;;5008726;28;20593;-47
2021/04/16 10:12:44;;;;;;;10.67;9.60;;;;;;;;;;5008102;28;20651;-47
2021/04/16 10:15:17;;;;;;;10.23;8.85;;;;;;;;;;5008601;28;20641;-48
2021/04/16 10:17:52;;;;;;;9.93;8.93;;;;;;;;;;5007868;28;20303;-47
2021/04/16 10:20:17;;;;;;;9.43;8.53;;;;;;;;;;5008803;28;20584;-47
2021/04/16 10:22:43;;;;;;;9.83;8.73;;;;;;;;;;5007680;28;20753;-47
2021/04/16 10:26:45;;;;;;;10.53;9.23;;;;;;;;;;5008383;28;20174;-48
2021/04/16 10:49:55;;;;;;;12.00;10.00;;;;;;;;;;5007592;28;20604;-48
2021/04/16 12:38:38;;;;;;;11.63;10.63;;;;;;;;;;5011194;28;20574;-47
2021/04/16 12:41:06;;;;;;;9.70;8.53;;;;;;;;;;5010724;28;20582;-47
2021/04/16 12:43:31;;;;;;;9.07;8.37;;;;;;;;;;5010261;28;20626;-46
2021/04/16 12:45:57;;;;;;;9.47;8.20;;;;;;;;;;5010384;28;20590;-47
2021/04/16 12:48:23;;;;;;;9.60;8.87;;;;;;;;;;5010483;28;20262;-47
2021/04/16 12:50:49;;;;;;;10.47;9.13;;;;;;;;;;5010735;28;20177;-46
2021/04/16 12:53:14;;;;;;;26.70;21.40;;;;;;;;;;5009578;28;21094;-46
2021/04/16 12:55:39;;;;;;;24.73;20.73;;;;;;;;;;5010428;28;20187;-47
2021/04/16 12:58:06;;;;;;;20.00;17.83;;;;;;;;;;5010271;28;20173;-46
2021/04/16 13:00:33;;;;;;;34.83;25.97;;;;;;;;;;5010515;28;20172;-47
2021/04/16 13:03:00;;;;;;;36.67;29.83;;;;;;;;;;5009384;28;20658;-47
2021/04/16 13:05:25;;;;;;;27.83;21.10;;;;;;;;;;5009666;28;20869;-47
2021/04/16 13:07:50;;;;;;;21.80;17.80;;;;;;;;;;5010202;28;20623;-49
2021/04/16 13:10:16;;;;;;;15.90;14.20;;;;;;;;;;5010089;28;20535;-48
2021/04/16 13:12:41;;;;;;;18.53;14.93;;;;;;;;;;5009135;28;20252;-47
2021/04/16 13:15:07;;;;;;;10.32;9.10;;;;;;;;;;5009424;28;20576;-48
2021/04/16 13:17:32;;;;;;;14.43;12.57;;;;;;;;;;5008893;28;20259;-48
2021/04/16 13:19:58;;;;;;;10.73;9.27;;;;;;;;;;5006555;28;20185;-47
2021/04/16 13:22:25;;;;;;;12.73;11.47;;;;;;;;;;5007558;28;20188;-48
2021/04/16 13:24:50;;;;;;;14.00;11.47;;;;;;;;;;4991223;28;20208;-47
2021/04/16 13:27:17;;;;;;;14.63;13.23;;;;;;;;;;4988383;28;20601;-48
2021/04/16 13:29:43;;;;;;;9.00;8.00;;;;;;;;;;4990303;28;20620;-48
2021/04/16 13:32:12;;;;;;;8.70;7.90;;;;;;;;;;5000285;28;20645;-47
2021/04/16 13:34:39;;;;;;;9.03;7.40;;;;;;;;;;5009052;28;20169;-47
2021/04/16 13:37:05;;;;;;;7.13;6.53;;;;;;;;;;5007103;28;20602;-48
2021/04/16 13:39:30;;;;;;;7.63;6.60;;;;;;;;;;5008623;28;20611;-47
2021/04/16 13:41:55;;;;;;;9.15;7.70;;;;;;;;;;4996776;28;20295;-47
2021/04/16 13:44:20;;;;;;;7.50;5.93;;;;;;;;;;4996688;28;20224;-47
2021/04/16 13:46:48;;;;;;;10.35;9.25;;;;;;;;;;4996526;28;20184;-47
2021/04/16 13:49:16;;;;;;;10.47;9.20;;;;;;;;;;4993715;28;20177;-47
2021/04/16 13:51:41;;;;;;;7.67;5.50;;;;;;;;;;4986644;28;20609;-47
2021/04/16 13:54:07;;;;;;;6.93;6.32;;;;;;;;;;4988436;28;20620;-48
2021/04/16 13:56:33;;;;;;;6.13;5.57;;;;;;;;;;4991094;28;20205;-47
2021/04/16 13:58:58;;;;;;;8.90;8.30;;;;;;;;;;5005954;28;20215;-46
2021/04/16 14:01:23;;;;;;;6.67;6.00;;;;;;;;;;5005831;28;20602;-47
2021/04/16 14:03:49;;;;;;;6.30;5.70;;;;;;;;;;4998454;28;20303;-47
2021/04/16 14:06:14;;;;;;;6.70;6.10;;;;;;;;;;4986380;28;20195;-46
2021/04/16 14:08:41;;;;;;;6.57;5.97;;;;;;;;;;5002925;28;20614;-46
2021/04/16 14:11:06;;;;;;;6.23;5.17;;;;;;;;;;5005689;28;20184;-47
2021/04/16 14:13:33;;;;;;;7.03;6.30;;;;;;;;;;5005380;28;20651;-47
2021/04/16 14:16:02;;;;;;;7.77;5.90;;;;;;;;;;5005409;28;20232;-47
2021/04/16 14:18:43;;;;;;;6.20;5.70;;;;;;;;;;5005095;28;21167;-46
2021/04/16 14:21:11;;;;;;;6.17;5.70;;;;;;;;;;5005078;28;20582;-46
2021/04/16 14:23:36;;;;;;;6.17;5.00;;;;;;;;;;5005201;28;20578;-46
2021/04/16 14:26:03;;;;;;;6.47;5.40;;;;;;;;;;5005367;28;20719;-47
2021/04/16 14:28:28;;;;;;;6.17;5.67;;;;;;;;;;5004999;28;20190;-47
2021/04/16 14:30:56;;;;;;;5.10;4.70;;;;;;;;;;5005113;28;20582;-46
2021/04/16 14:33:26;;;;;;;6.27;5.70;;;;;;;;;;5000992;28;20211;-46
2021/04/16 14:35:51;;;;;;;6.60;6.10;;;;;;;;;;5005523;28;20579;-48
2021/04/16 14:38:16;;;;;;;6.57;5.70;;;;;;;;;;5004664;28;20590;-47
2021/04/16 14:40:41;;;;;;;6.67;5.77;;;;;;;;;;5005260;28;20309;-47
2021/04/16 14:43:07;;;;;;;6.00;4.90;;;;;;;;;;5004750;28;20967;-47
2021/04/16 14:45:40;;;;;;;7.93;5.37;;;;;;;;;;5005305;28;20223;-47
2021/04/16 14:48:06;;;;;;;5.80;5.33;;;;;;;;;;5002151;28;20241;-51
2021/04/16 14:50:31;;;;;;;6.17;5.57;;;;;;;;;;4992313;28;20601;-47
2021/04/16 14:52:59;;;;;;;5.70;5.20;;;;;;;;;;5007244;28;20231;-47
2021/04/16 14:55:30;;;;;;;6.37;5.87;;;;;;;;;;4997503;28;20238;-47
2021/04/16 14:57:56;;;;;;;7.40;5.20;;;;;;;;;;4988353;28;20573;-47
2021/04/16 15:00:23;;;;;;;7.43;5.17;;;;;;;;;;4988297;28;20606;-47
2021/04/16 15:02:49;;;;;;;6.00;5.50;;;;;;;;;;4998941;28;20606;-47
2021/04/16 15:05:16;;;;;;;5.57;4.90;;;;;;;;;;5006529;28;20599;-46
2021/04/16 15:07:43;;;;;;;7.63;5.80;;;;;;;;;;5003694;28;20685;-47
2021/04/16 15:10:10;;;;;;;8.40;5.30;;;;;;;;;;4990779;28;20915;-47
2021/04/16 15:12:40;;;;;;;6.03;4.80;;;;;;;;;;4988949;28;21307;-47
2021/04/16 15:15:06;;;;;;;9.27;6.43;;;;;;;;;;4993022;28;20631;-47
2021/04/16 15:17:31;;;;;;;6.00;5.50;;;;;;;;;;4994207;28;21462;-47
2021/04/16 15:19:57;;;;;;;5.60;4.30;;;;;;;;;;4987950;28;21228;-47
2021/04/16 15:22:23;;;;;;;4.97;4.47;;;;;;;;;;4993216;28;20650;-47
2021/04/16 15:24:48;;;;;;;5.40;4.90;;;;;;;;;;5006280;28;20621;-47
2021/04/16 15:27:15;;;;;;;5.47;4.53;;;;;;;;;;5007209;28;20540;-47
2021/04/16 15:29:42;;;;;;;4.83;4.43;;;;;;;;;;5007545;28;20186;-47
2021/04/16 15:32:10;;;;;;;4.60;4.17;;;;;;;;;;5007217;28;20648;-46
2021/04/16 15:47:56;;;;;;;4.43;3.93;;;;;;;;;;5007645;28;20623;-46
2021/04/16 15:50:24;;;;;;;6.07;4.40;;;;;;;;;;4988341;28;20617;-47
2021/04/16 15:52:49;;;;;;;7.17;5.00;;;;;;;;;;4991387;28;20561;-47
2021/04/16 15:55:14;;;;;;;4.47;4.07;;;;;;;;;;5006578;28;20702;-47
2021/04/16 15:57:42;;;;;;;3.60;3.30;;;;;;;;;;4998790;28;20211;-47
2021/04/16 16:00:08;;;;;;;5.13;3.53;;;;;;;;;;4987471;28;20176;-47
2021/04/16 16:02:33;;;;;;;4.83;4.10;;;;;;;;;;4996201;28;20685;-46
2021/04/16 16:04:58;;;;;;;5.80;3.87;;;;;;;;;;5004769;28;20969;-47
2021/04/16 16:07:24;;;;;;;4.60;4.20;;;;;;;;;;5023978;28;20173;-48
2021/04/16 16:09:52;;;;;;;7.57;4.20;;;;;;;;;;5010957;28;20182;-46
2021/04/16 16:12:19;;;;;;;4.70;4.30;;;;;;;;;;5009792;28;20892;-46
2021/04/16 16:14:48;;;;;;;4.83;4.30;;;;;;;;;;5010269;28;20597;-47
2021/04/16 16:17:18;;;;;;;5.90;4.10;;;;;;;;;;5009943;28;20650;-48
2021/04/16 16:19:44;;;;;;;4.70;4.30;;;;;;;;;;5011282;28;20648;-47
2021/04/16 16:22:09;;;;;;;4.00;3.70;;;;;;;;;;5011089;28;20592;-47
2021/04/16 16:24:34;;;;;;;4.40;3.97;;;;;;;;;;5010372;28;21167;-48
2021/04/16 16:27:03;;;;;;;4.23;3.93;;;;;;;;;;5004535;28;20633;-49
2021/04/16 16:29:30;;;;;;;5.13;3.33;;;;;;;;;;5003955;28;20287;-48
2021/04/16 16:31:57;;;;;;;3.80;3.40;;;;;;;;;;5005917;28;20654;-48
2021/04/16 16:34:24;;;;;;;3.20;2.90;;;;;;;;;;5008127;28;20616;-49
2021/04/16 16:36:49;;;;;;;3.83;3.50;;;;;;;;;;5010079;28;20597;-49
2021/04/16 16:39:14;;;;;;;7.97;3.57;;;;;;;;;;5007627;28;20588;-47
2021/04/16 16:41:40;;;;;;;2.93;2.73;;;;;;;;;;5009813;28;20535;-47
2021/04/16 16:44:14;;;;;;;3.53;2.80;;;;;;;;;;5009133;28;20184;-47
2021/04/16 16:46:39;;;;;;;5.07;4.20;;;;;;;;;;5010596;28;20181;-47
2021/04/16 16:49:04;;;;;;;3.55;3.00;;;;;;;;;;5009963;28;20597;-47
2021/04/16 16:51:32;;;;;;;3.03;2.70;;;;;;;;;;5009681;28;20177;-47
2021/04/16 16:53:57;;;;;;;3.37;3.07;;;;;;;;;;5009743;28;20207;-47
2021/04/16 16:56:24;;;;;;;3.77;3.47;;;;;;;;;;5009486;28;20569;-48
2021/04/16 16:58:51;;;;;;;3.30;3.00;;;;;;;;;;5008960;28;20418;-47
2021/04/16 17:01:18;;;;;;;3.93;2.93;;;;;;;;;;5009266;28;20591;-47